sensor_id;sensor_type;location;lat;lon;timestamp;P1;durP1;ratioP1;P2;durP2;ratioP2
33094;SDS011;19459;53.044;8.910;2023-02-11T00:00:12;83.88;;;41.60;;
33094;SDS011;19459;53.044;8.910;2023-02-11T00:02:38;96.85;;;43.22;;
33094;SDS011;19459;53.044;8.910;2023-02-11T00:05:04;83.82;;;43.53;;
33094;SDS011;19459;53.044;8.910;2023-02-11T00:07:31;90.82;;;42.30;;
33094;SDS011;19459;53.044;8.910;2023-02-11T00:09:58;81.32;;;39.78;;
33094;SDS011;19459;53.044;8.910;2023-02-11T00:12:26;83.20;;;39.10;;
33094;SDS011;19459;53.044;8.910;2023-02-11T00:14:52;86.90;;;42.00;;
33094;SDS011;19459;53.044;8.910;2023-02-11T00:17:19;88.97;;;42.40;;
33094;SDS011;19459;53.044;8.910;2023-02-11T00:19:48;90.43;;;41.75;;
33094;SDS011;19459;53.044;8.910;2023-02-11T00:22:17;86.55;;;41.83;;
33094;SDS011;19459;53.044;8.910;2023-02-11T00:24:43;85.97;;;40.28;;
33094;SDS011;19459;53.044;8.910;2023-02-11T00:27:09;76.68;;;38.75;;
33094;SDS011;19459;53.044;8.910;2023-02-11T00:29:38;80.82;;;40.55;;
33094;SDS011;19459;53.044;8.910;2023-02-11T00:32:04;75.88;;;37.40;;
33094;SDS011;19459;53.044;8.910;2023-02-11T00:34:33;82.00;;;40.50;;
33094;SDS011;19459;53.044;8.910;2023-02-11T00:37:00;80.53;;;41.25;;
33094;SDS011;19459;53.044;8.910;2023-02-11T00:39:26;81.30;;;40.22;;
33094;SDS011;19459;53.044;8.910;2023-02-11T00:41:52;75.70;;;40.20;;
33094;SDS011;19459;53.044;8.910;2023-02-11T00:44:18;82.15;;;41.70;;
33094;SDS011;19459;53.044;8.910;2023-02-11T00:46:44;85.20;;;40.38;;
33094;SDS011;19459;53.044;8.910;2023-02-11T00:49:10;85.13;;;41.65;;
33094;SDS011;19459;53.044;8.910;2023-02-11T00:51:35;86.90;;;38.85;;
33094;SDS011;19459;53.044;8.910;2023-02-11T00:54:01;83.32;;;39.95;;
33094;SDS011;19459;53.044;8.910;2023-02-11T00:56:28;81.90;;;39.17;;
33094;SDS011;19459;53.044;8.910;2023-02-11T00:58:53;86.00;;;39.88;;
33094;SDS011;19459;53.044;8.910;2023-02-11T01:01:19;80.18;;;41.92;;
33094;SDS011;19459;53.044;8.910;2023-02-11T01:03:45;77.30;;;40.33;;
33094;SDS011;19459;53.044;8.910;2023-02-11T01:06:11;85.78;;;39.95;;
33094;SDS011;19459;53.044;8.910;2023-02-11T01:08:37;84.63;;;38.92;;
33094;SDS011;19459;53.044;8.910;2023-02-11T01:11:05;76.55;;;39.58;;
33094;SDS011;19459;53.044;8.910;2023-02-11T01:13:37;84.90;;;39.83;;
33094;SDS011;19459;53.044;8.910;2023-02-11T01:16:05;80.60;;;39.00;;
33094;SDS011;19459;53.044;8.910;2023-02-11T01:18:32;70.28;;;36.90;;
33094;SDS011;19459;53.044;8.910;2023-02-11T01:20:58;78.60;;;36.90;;
33094;SDS011;19459;53.044;8.910;2023-02-11T01:23:24;76.65;;;39.90;;
33094;SDS011;19459;53.044;8.910;2023-02-11T01:25:50;80.57;;;39.58;;
33094;SDS011;19459;53.044;8.910;2023-02-11T01:28:17;71.07;;;38.40;;
33094;SDS011;19459;53.044;8.910;2023-02-11T01:30:45;90.05;;;42.45;;
33094;SDS011;19459;53.044;8.910;2023-02-11T01:33:11;77.68;;;38.67;;
33094;SDS011;19459;53.044;8.910;2023-02-11T01:35:38;76.25;;;37.40;;
33094;SDS011;19459;53.044;8.910;2023-02-11T01:38:05;75.07;;;37.33;;
33094;SDS011;19459;53.044;8.910;2023-02-11T01:40:32;73.30;;;36.97;;
33094;SDS011;19459;53.044;8.910;2023-02-11T01:42:58;76.85;;;38.15;;
33094;SDS011;19459;53.044;8.910;2023-02-11T01:48:44;73.60;;;37.03;;
33094;SDS011;19459;53.044;8.910;2023-02-11T01:51:21;77.25;;;35.97;;
33094;SDS011;19459;53.044;8.910;2023-02-11T01:53:52;75.80;;;37.92;;
33094;SDS011;19459;53.044;8.910;2023-02-11T01:56:38;79.70;;;38.25;;
33094;SDS011;19459;53.044;8.910;2023-02-11T01:59:45;73.00;;;35.78;;
33094;SDS011;19459;53.044;8.910;2023-02-11T02:02:25;81.60;;;35.58;;
33094;SDS011;19459;53.044;8.910;2023-02-11T02:04:59;75.85;;;34.90;;
33094;SDS011;19459;53.044;8.910;2023-02-11T02:10:11;80.25;;;36.42;;
33094;SDS011;19459;53.044;8.910;2023-02-11T02:12:43;65.47;;;34.13;;
33094;SDS011;19459;53.044;8.910;2023-02-11T02:15:23;72.57;;;35.20;;
33094;SDS011;19459;53.044;8.910;2023-02-11T02:23:08;73.18;;;36.05;;
33094;SDS011;19459;53.044;8.910;2023-02-11T02:29:44;74.82;;;35.30;;
33094;SDS011;19459;53.044;8.910;2023-02-11T02:35:19;78.57;;;34.72;;
33094;SDS011;19459;53.044;8.910;2023-02-11T02:40:41;61.08;;;34.15;;
33094;SDS011;19459;53.044;8.910;2023-02-11T02:43:24;71.20;;;35.28;;
33094;SDS011;19459;53.044;8.910;2023-02-11T02:45:52;69.53;;;34.92;;
33094;SDS011;19459;53.044;8.910;2023-02-11T02:50:59;72.90;;;34.47;;
33094;SDS011;19459;53.044;8.910;2023-02-11T02:56:47;69.28;;;33.10;;
33094;SDS011;19459;53.044;8.910;2023-02-11T03:02:23;63.50;;;35.58;;
33094;SDS011;19459;53.044;8.910;2023-02-11T03:07:43;68.93;;;32.10;;
33094;SDS011;19459;53.044;8.910;2023-02-11T03:10:28;71.25;;;34.60;;
33094;SDS011;19459;53.044;8.910;2023-02-11T03:13:05;70.90;;;32.42;;
33094;SDS011;19459;53.044;8.910;2023-02-11T03:15:33;68.43;;;34.65;;
33094;SDS011;19459;53.044;8.910;2023-02-11T03:18:05;59.97;;;32.83;;
33094;SDS011;19459;53.044;8.910;2023-02-11T03:20:49;64.70;;;31.92;;
33094;SDS011;19459;53.044;8.910;2023-02-11T03:23:22;60.72;;;30.63;;
33094;SDS011;19459;53.044;8.910;2023-02-11T03:25:56;65.80;;;31.52;;
33094;SDS011;19459;53.044;8.910;2023-02-11T03:37:19;59.45;;;29.73;;
33094;SDS011;19459;53.044;8.910;2023-02-11T03:39:56;66.57;;;31.65;;
33094;SDS011;19459;53.044;8.910;2023-02-11T03:42:30;59.47;;;28.08;;
33094;SDS011;19459;53.044;8.910;2023-02-11T03:45:05;64.30;;;30.15;;
33094;SDS011;19459;53.044;8.910;2023-02-11T03:47:36;59.75;;;28.25;;
33094;SDS011;19459;53.044;8.910;2023-02-11T03:50:09;62.72;;;29.27;;
33094;SDS011;19459;53.044;8.910;2023-02-11T03:52:37;64.93;;;28.88;;
33094;SDS011;19459;53.044;8.910;2023-02-11T03:55:05;58.10;;;28.90;;
33094;SDS011;19459;53.044;8.910;2023-02-11T03:57:36;49.30;;;27.70;;
33094;SDS011;19459;53.044;8.910;2023-02-11T04:00:03;57.95;;;29.17;;
33094;SDS011;19459;53.044;8.910;2023-02-11T04:02:33;76.57;;;30.40;;
33094;SDS011;19459;53.044;8.910;2023-02-11T04:05:01;70.00;;;30.02;;
33094;SDS011;19459;53.044;8.910;2023-02-11T04:07:31;70.88;;;31.23;;
33094;SDS011;19459;53.044;8.910;2023-02-11T04:09:57;68.82;;;29.42;;
33094;SDS011;19459;53.044;8.910;2023-02-11T04:12:23;63.38;;;28.92;;
33094;SDS011;19459;53.044;8.910;2023-02-11T04:14:49;66.47;;;28.65;;
33094;SDS011;19459;53.044;8.910;2023-02-11T04:17:15;67.22;;;30.17;;
33094;SDS011;19459;53.044;8.910;2023-02-11T04:19:41;62.63;;;29.52;;
33094;SDS011;19459;53.044;8.910;2023-02-11T04:22:07;58.50;;;29.38;;
33094;SDS011;19459;53.044;8.910;2023-02-11T04:24:33;60.28;;;29.23;;
33094;SDS011;19459;53.044;8.910;2023-02-11T04:26:59;58.65;;;28.40;;
33094;SDS011;19459;53.044;8.910;2023-02-11T04:29:25;56.55;;;25.58;;
33094;SDS011;19459;53.044;8.910;2023-02-11T04:31:52;53.85;;;26.23;;
33094;SDS011;19459;53.044;8.910;2023-02-11T04:34:19;61.53;;;28.42;;
33094;SDS011;19459;53.044;8.910;2023-02-11T04:36:46;55.70;;;23.85;;
33094;SDS011;19459;53.044;8.910;2023-02-11T04:39:11;59.95;;;27.38;;
33094;SDS011;19459;53.044;8.910;2023-02-11T04:41:37;54.95;;;25.98;;
33094;SDS011;19459;53.044;8.910;2023-02-11T04:44:03;54.67;;;25.80;;
33094;SDS011;19459;53.044;8.910;2023-02-11T04:46:29;64.32;;;26.23;;
33094;SDS011;19459;53.044;8.910;2023-02-11T04:48:55;55.25;;;26.42;;
33094;SDS011;19459;53.044;8.910;2023-02-11T04:51:21;83.70;;;29.15;;
33094;SDS011;19459;53.044;8.910;2023-02-11T04:53:47;59.42;;;25.48;;
33094;SDS011;19459;53.044;8.910;2023-02-11T04:56:13;58.67;;;26.05;;
33094;SDS011;19459;53.044;8.910;2023-02-11T04:58:39;58.88;;;26.98;;
33094;SDS011;19459;53.044;8.910;2023-02-11T05:01:08;57.08;;;25.67;;
33094;SDS011;19459;53.044;8.910;2023-02-11T05:03:36;54.72;;;27.15;;
33094;SDS011;19459;53.044;8.910;2023-02-11T05:06:02;52.47;;;27.45;;
33094;SDS011;19459;53.044;8.910;2023-02-11T05:08:29;52.38;;;24.35;;
33094;SDS011;19459;53.044;8.910;2023-02-11T05:10:55;54.63;;;24.13;;
33094;SDS011;19459;53.044;8.910;2023-02-11T05:13:21;56.13;;;26.90;;
33094;SDS011;19459;53.044;8.910;2023-02-11T05:15:47;59.08;;;25.60;;
33094;SDS011;19459;53.044;8.910;2023-02-11T05:18:12;57.58;;;26.88;;
33094;SDS011;19459;53.044;8.910;2023-02-11T05:20:39;62.67;;;25.95;;
33094;SDS011;19459;53.044;8.910;2023-02-11T05:23:06;60.67;;;27.45;;
33094;SDS011;19459;53.044;8.910;2023-02-11T05:25:32;58.72;;;27.77;;
33094;SDS011;19459;53.044;8.910;2023-02-11T05:27:58;60.55;;;25.75;;
33094;SDS011;19459;53.044;8.910;2023-02-11T05:30:23;48.45;;;24.85;;
33094;SDS011;19459;53.044;8.910;2023-02-11T05:32:49;54.47;;;26.83;;
33094;SDS011;19459;53.044;8.910;2023-02-11T05:35:15;67.43;;;26.45;;
33094;SDS011;19459;53.044;8.910;2023-02-11T05:37:41;50.30;;;24.63;;
33094;SDS011;19459;53.044;8.910;2023-02-11T05:40:07;63.63;;;23.65;;
33094;SDS011;19459;53.044;8.910;2023-02-11T05:42:34;65.00;;;25.15;;
33094;SDS011;19459;53.044;8.910;2023-02-11T05:45:00;56.13;;;25.92;;
33094;SDS011;19459;53.044;8.910;2023-02-11T05:47:25;53.30;;;25.38;;
33094;SDS011;19459;53.044;8.910;2023-02-11T05:49:51;62.22;;;25.65;;
33094;SDS011;19459;53.044;8.910;2023-02-11T05:52:17;47.65;;;26.65;;
33094;SDS011;19459;53.044;8.910;2023-02-11T05:54:45;56.00;;;23.95;;
33094;SDS011;19459;53.044;8.910;2023-02-11T05:57:10;52.53;;;24.65;;
33094;SDS011;19459;53.044;8.910;2023-02-11T05:59:36;54.92;;;25.83;;
33094;SDS011;19459;53.044;8.910;2023-02-11T06:02:03;55.78;;;25.45;;
33094;SDS011;19459;53.044;8.910;2023-02-11T06:04:28;60.58;;;25.25;;
33094;SDS011;19459;53.044;8.910;2023-02-11T06:06:54;57.55;;;24.52;;
33094;SDS011;19459;53.044;8.910;2023-02-11T06:09:21;62.20;;;26.05;;
33094;SDS011;19459;53.044;8.910;2023-02-11T06:11:46;53.75;;;25.48;;
33094;SDS011;19459;53.044;8.910;2023-02-11T06:14:12;65.35;;;26.33;;
33094;SDS011;19459;53.044;8.910;2023-02-11T06:16:38;49.28;;;23.88;;
33094;SDS011;19459;53.044;8.910;2023-02-11T06:19:04;59.50;;;26.98;;
33094;SDS011;19459;53.044;8.910;2023-02-11T06:21:30;57.03;;;26.67;;
33094;SDS011;19459;53.044;8.910;2023-02-11T06:24:00;58.10;;;26.20;;
33094;SDS011;19459;53.044;8.910;2023-02-11T06:26:26;70.65;;;27.15;;
33094;SDS011;19459;53.044;8.910;2023-02-11T06:28:58;66.35;;;29.05;;
33094;SDS011;19459;53.044;8.910;2023-02-11T06:31:27;59.35;;;28.35;;
33094;SDS011;19459;53.044;8.910;2023-02-11T06:33:54;62.60;;;27.35;;
33094;SDS011;19459;53.044;8.910;2023-02-11T06:36:20;63.55;;;27.67;;
33094;SDS011;19459;53.044;8.910;2023-02-11T06:38:47;63.85;;;29.75;;
33094;SDS011;19459;53.044;8.910;2023-02-11T06:41:15;62.15;;;29.25;;
33094;SDS011;19459;53.044;8.910;2023-02-11T06:43:44;63.70;;;28.33;;
33094;SDS011;19459;53.044;8.910;2023-02-11T06:46:09;61.67;;;29.02;;
33094;SDS011;19459;53.044;8.910;2023-02-11T06:48:35;67.97;;;29.30;;
33094;SDS011;19459;53.044;8.910;2023-02-11T06:51:06;67.35;;;28.95;;
33094;SDS011;19459;53.044;8.910;2023-02-11T06:53:34;59.83;;;29.50;;
33094;SDS011;19459;53.044;8.910;2023-02-11T06:56:03;69.13;;;30.67;;
33094;SDS011;19459;53.044;8.910;2023-02-11T06:58:31;69.65;;;30.85;;
33094;SDS011;19459;53.044;8.910;2023-02-11T07:00:57;74.43;;;29.85;;
33094;SDS011;19459;53.044;8.910;2023-02-11T07:03:24;68.10;;;29.27;;
33094;SDS011;19459;53.044;8.910;2023-02-11T07:05:50;63.92;;;29.50;;
33094;SDS011;19459;53.044;8.910;2023-02-11T07:08:16;67.97;;;32.33;;
33094;SDS011;19459;53.044;8.910;2023-02-11T07:10:42;59.20;;;30.35;;
33094;SDS011;19459;53.044;8.910;2023-02-11T07:13:07;75.80;;;32.92;;
33094;SDS011;19459;53.044;8.910;2023-02-11T07:15:35;74.20;;;35.45;;
33094;SDS011;19459;53.044;8.910;2023-02-11T07:18:02;72.47;;;34.58;;
33094;SDS011;19459;53.044;8.910;2023-02-11T07:20:28;69.03;;;32.05;;
33094;SDS011;19459;53.044;8.910;2023-02-11T07:22:53;78.70;;;33.95;;
33094;SDS011;19459;53.044;8.910;2023-02-11T07:25:19;66.65;;;32.92;;
33094;SDS011;19459;53.044;8.910;2023-02-11T07:27:45;80.30;;;38.35;;
33094;SDS011;19459;53.044;8.910;2023-02-11T07:30:11;71.70;;;35.47;;
33094;SDS011;19459;53.044;8.910;2023-02-11T07:32:38;76.55;;;35.38;;
33094;SDS011;19459;53.044;8.910;2023-02-11T07:35:04;77.28;;;36.13;;
33094;SDS011;19459;53.044;8.910;2023-02-11T07:37:34;68.65;;;33.17;;
33094;SDS011;19459;53.044;8.910;2023-02-11T07:40:04;70.30;;;32.67;;
33094;SDS011;19459;53.044;8.910;2023-02-11T07:42:32;78.72;;;34.40;;
33094;SDS011;19459;53.044;8.910;2023-02-11T07:44:59;71.53;;;31.83;;
33094;SDS011;19459;53.044;8.910;2023-02-11T07:47:25;59.10;;;31.65;;
33094;SDS011;19459;53.044;8.910;2023-02-11T07:49:51;75.25;;;33.13;;
33094;SDS011;19459;53.044;8.910;2023-02-11T07:52:17;76.85;;;32.28;;
33094;SDS011;19459;53.044;8.910;2023-02-11T07:54:44;72.45;;;32.85;;
33094;SDS011;19459;53.044;8.910;2023-02-11T07:57:10;66.97;;;32.28;;
33094;SDS011;19459;53.044;8.910;2023-02-11T07:59:36;69.70;;;32.83;;
33094;SDS011;19459;53.044;8.910;2023-02-11T08:02:02;63.97;;;33.05;;
33094;SDS011;19459;53.044;8.910;2023-02-11T08:04:28;63.60;;;30.85;;
33094;SDS011;19459;53.044;8.910;2023-02-11T08:06:54;74.03;;;32.22;;
33094;SDS011;19459;53.044;8.910;2023-02-11T08:09:21;64.18;;;30.88;;
33094;SDS011;19459;53.044;8.910;2023-02-11T08:11:47;66.63;;;32.00;;
33094;SDS011;19459;53.044;8.910;2023-02-11T08:14:13;64.68;;;30.67;;
33094;SDS011;19459;53.044;8.910;2023-02-11T08:16:41;65.43;;;29.42;;
33094;SDS011;19459;53.044;8.910;2023-02-11T08:19:09;56.95;;;26.58;;
33094;SDS011;19459;53.044;8.910;2023-02-11T08:21:38;69.15;;;28.98;;
33094;SDS011;19459;53.044;8.910;2023-02-11T08:24:04;63.55;;;29.60;;
33094;SDS011;19459;53.044;8.910;2023-02-11T08:26:32;65.22;;;27.70;;
33094;SDS011;19459;53.044;8.910;2023-02-11T08:28:59;62.40;;;30.70;;
33094;SDS011;19459;53.044;8.910;2023-02-11T08:31:32;52.80;;;27.23;;
33094;SDS011;19459;53.044;8.910;2023-02-11T08:34:00;59.25;;;27.13;;
33094;SDS011;19459;53.044;8.910;2023-02-11T08:36:33;52.67;;;26.55;;
33094;SDS011;19459;53.044;8.910;2023-02-11T08:39:03;56.53;;;25.63;;
33094;SDS011;19459;53.044;8.910;2023-02-11T08:41:32;59.45;;;26.00;;
33094;SDS011;19459;53.044;8.910;2023-02-11T08:43:58;53.50;;;26.40;;
33094;SDS011;19459;53.044;8.910;2023-02-11T08:46:25;59.63;;;26.33;;
33094;SDS011;19459;53.044;8.910;2023-02-11T08:48:51;50.17;;;26.70;;
33094;SDS011;19459;53.044;8.910;2023-02-11T08:51:21;52.00;;;25.60;;
33094;SDS011;19459;53.044;8.910;2023-02-11T08:53:51;60.45;;;24.38;;
33094;SDS011;19459;53.044;8.910;2023-02-11T08:56:19;47.40;;;22.75;;
33094;SDS011;19459;53.044;8.910;2023-02-11T08:58:47;57.25;;;24.88;;
33094;SDS011;19459;53.044;8.910;2023-02-11T09:01:15;55.67;;;23.58;;
33094;SDS011;19459;53.044;8.910;2023-02-11T09:03:43;50.67;;;25.23;;
33094;SDS011;19459;53.044;8.910;2023-02-11T09:06:10;50.10;;;22.67;;
33094;SDS011;19459;53.044;8.910;2023-02-11T09:08:38;49.83;;;23.42;;
33094;SDS011;19459;53.044;8.910;2023-02-11T09:11:07;64.10;;;24.65;;
33094;SDS011;19459;53.044;8.910;2023-02-11T09:13:34;51.30;;;23.50;;
33094;SDS011;19459;53.044;8.910;2023-02-11T09:16:01;53.80;;;23.55;;
33094;SDS011;19459;53.044;8.910;2023-02-11T09:18:32;64.03;;;24.55;;
33094;SDS011;19459;53.044;8.910;2023-02-11T09:21:05;54.30;;;25.48;;
33094;SDS011;19459;53.044;8.910;2023-02-11T09:23:34;46.25;;;23.50;;
33094;SDS011;19459;53.044;8.910;2023-02-11T09:26:07;53.20;;;24.67;;
33094;SDS011;19459;53.044;8.910;2023-02-11T09:31:12;55.88;;;23.88;;
33094;SDS011;19459;53.044;8.910;2023-02-11T09:33:41;57.95;;;25.30;;
33094;SDS011;19459;53.044;8.910;2023-02-11T09:36:15;48.72;;;24.05;;
33094;SDS011;19459;53.044;8.910;2023-02-11T09:38:44;46.60;;;24.70;;
33094;SDS011;19459;53.044;8.910;2023-02-11T09:43:58;51.42;;;24.02;;
33094;SDS011;19459;53.044;8.910;2023-02-11T09:46:33;59.17;;;24.50;;
33094;SDS011;19459;53.044;8.910;2023-02-11T09:49:05;54.92;;;26.67;;
33094;SDS011;19459;53.044;8.910;2023-02-11T09:51:54;55.28;;;24.25;;
33094;SDS011;19459;53.044;8.910;2023-02-11T09:54:29;51.35;;;24.65;;
33094;SDS011;19459;53.044;8.910;2023-02-11T09:57:08;51.55;;;24.30;;
33094;SDS011;19459;53.044;8.910;2023-02-11T09:59:34;58.55;;;26.77;;
33094;SDS011;19459;53.044;8.910;2023-02-11T10:02:08;53.85;;;24.95;;
33094;SDS011;19459;53.044;8.910;2023-02-11T10:08:05;55.42;;;24.27;;
33094;SDS011;19459;53.044;8.910;2023-02-11T10:17:08;50.80;;;23.08;;
33094;SDS011;19459;53.044;8.910;2023-02-11T10:22:59;63.97;;;28.05;;
33094;SDS011;19459;53.044;8.910;2023-02-11T10:25:41;62.80;;;26.85;;
33094;SDS011;19459;53.044;8.910;2023-02-11T10:28:18;53.70;;;25.52;;
33094;SDS011;19459;53.044;8.910;2023-02-11T10:31:07;53.63;;;25.45;;
33094;SDS011;19459;53.044;8.910;2023-02-11T10:36:25;43.28;;;22.95;;
33094;SDS011;19459;53.044;8.910;2023-02-11T10:38:54;43.00;;;22.00;;
33094;SDS011;19459;53.044;8.910;2023-02-11T10:41:25;40.65;;;23.23;;
33094;SDS011;19459;53.044;8.910;2023-02-11T10:44:00;47.67;;;22.67;;
33094;SDS011;19459;53.044;8.910;2023-02-11T10:46:31;55.42;;;24.40;;
33094;SDS011;19459;53.044;8.910;2023-02-11T10:49:01;51.50;;;26.05;;
33094;SDS011;19459;53.044;8.910;2023-02-11T10:51:28;50.67;;;24.65;;
33094;SDS011;19459;53.044;8.910;2023-02-11T10:56:34;45.63;;;23.95;;
33094;SDS011;19459;53.044;8.910;2023-02-11T10:59:18;43.22;;;24.10;;
33094;SDS011;19459;53.044;8.910;2023-02-11T11:01:53;47.47;;;23.40;;
33094;SDS011;19459;53.044;8.910;2023-02-11T11:07:35;46.47;;;24.38;;
33094;SDS011;19459;53.044;8.910;2023-02-11T11:09:57;40.73;;;22.53;;
33094;SDS011;19459;53.044;8.910;2023-02-11T11:12:50;48.53;;;23.83;;
33094;SDS011;19459;53.044;8.910;2023-02-11T11:15:20;44.25;;;22.30;;
33094;SDS011;19459;53.044;8.910;2023-02-11T11:18:37;47.60;;;22.35;;
33094;SDS011;19459;53.044;8.910;2023-02-11T11:20:43;39.78;;;22.02;;
33094;SDS011;19459;53.044;8.910;2023-02-11T11:23:25;42.63;;;22.08;;
33094;SDS011;19459;53.044;8.910;2023-02-11T11:25:59;39.13;;;20.58;;
33094;SDS011;19459;53.044;8.910;2023-02-11T11:28:38;42.25;;;22.17;;
33094;SDS011;19459;53.044;8.910;2023-02-11T11:31:20;43.65;;;20.08;;
33094;SDS011;19459;53.044;8.910;2023-02-11T11:33:54;45.55;;;21.92;;
33094;SDS011;19459;53.044;8.910;2023-02-11T11:36:37;42.90;;;20.88;;
33094;SDS011;19459;53.044;8.910;2023-02-11T11:39:15;42.70;;;19.77;;
33094;SDS011;19459;53.044;8.910;2023-02-11T11:41:50;42.72;;;20.77;;
33094;SDS011;19459;53.044;8.910;2023-02-11T11:49:43;41.53;;;20.88;;
33094;SDS011;19459;53.044;8.910;2023-02-11T11:55:20;49.08;;;21.48;;
33094;SDS011;19459;53.044;8.910;2023-02-11T11:57:53;49.17;;;21.60;;
33094;SDS011;19459;53.044;8.910;2023-02-11T12:09:21;46.28;;;20.52;;
33094;SDS011;19459;53.044;8.910;2023-02-11T12:15:31;39.00;;;19.70;;
33094;SDS011;19459;53.044;8.910;2023-02-11T12:18:08;40.40;;;18.95;;
33094;SDS011;19459;53.044;8.910;2023-02-11T12:20:58;44.17;;;18.98;;
33094;SDS011;19459;53.044;8.910;2023-02-11T12:26:24;38.45;;;17.77;;
33094;SDS011;19459;53.044;8.910;2023-02-11T12:29:29;37.22;;;17.65;;
33094;SDS011;19459;53.044;8.910;2023-02-11T12:32:26;32.13;;;17.27;;
33094;SDS011;19459;53.044;8.910;2023-02-11T12:35:14;39.47;;;18.02;;
33094;SDS011;19459;53.044;8.910;2023-02-11T12:38:07;40.10;;;18.15;;
33094;SDS011;19459;53.044;8.910;2023-02-11T12:43:35;40.67;;;17.90;;
33094;SDS011;19459;53.044;8.910;2023-02-11T12:51:50;42.47;;;18.33;;
33094;SDS011;19459;53.044;8.910;2023-02-11T12:54:41;39.13;;;18.00;;
33094;SDS011;19459;53.044;8.910;2023-02-11T12:57:26;42.83;;;17.33;;
33094;SDS011;19459;53.044;8.910;2023-02-11T13:03:00;28.55;;;15.73;;
33094;SDS011;19459;53.044;8.910;2023-02-11T13:05:45;40.97;;;16.77;;
33094;SDS011;19459;53.044;8.910;2023-02-11T13:08:27;39.67;;;17.60;;
33094;SDS011;19459;53.044;8.910;2023-02-11T13:11:01;41.83;;;17.02;;
33094;SDS011;19459;53.044;8.910;2023-02-11T13:13:54;39.72;;;17.15;;
33094;SDS011;19459;53.044;8.910;2023-02-11T13:16:43;41.60;;;17.02;;
33094;SDS011;19459;53.044;8.910;2023-02-11T13:27:42;29.65;;;12.82;;
33094;SDS011;19459;53.044;8.910;2023-02-11T13:30:30;35.22;;;13.90;;
33094;SDS011;19459;53.044;8.910;2023-02-11T13:33:04;41.33;;;14.88;;
33094;SDS011;19459;53.044;8.910;2023-02-11T13:38:35;33.72;;;13.68;;
33094;SDS011;19459;53.044;8.910;2023-02-11T13:41:14;33.28;;;15.25;;
33094;SDS011;19459;53.044;8.910;2023-02-11T13:43:46;32.47;;;15.10;;
33094;SDS011;19459;53.044;8.910;2023-02-11T13:49:21;36.13;;;14.05;;
33094;SDS011;19459;53.044;8.910;2023-02-11T13:52:23;43.25;;;14.75;;
33094;SDS011;19459;53.044;8.910;2023-02-11T14:00:43;38.63;;;15.10;;
33094;SDS011;19459;53.044;8.910;2023-02-11T14:03:22;32.60;;;14.55;;
33094;SDS011;19459;53.044;8.910;2023-02-11T14:06:11;33.47;;;14.90;;
33094;SDS011;19459;53.044;8.910;2023-02-11T14:14:20;39.85;;;15.52;;
33094;SDS011;19459;53.044;8.910;2023-02-11T14:22:12;39.63;;;16.17;;
33094;SDS011;19459;53.044;8.910;2023-02-11T14:24:49;37.78;;;16.67;;
33094;SDS011;19459;53.044;8.910;2023-02-11T14:33:19;49.17;;;18.60;;
33094;SDS011;19459;53.044;8.910;2023-02-11T14:42:22;47.80;;;20.08;;
33094;SDS011;19459;53.044;8.910;2023-02-11T14:44:55;52.75;;;21.95;;
33094;SDS011;19459;53.044;8.910;2023-02-11T14:50:13;65.10;;;21.08;;
33094;SDS011;19459;53.044;8.910;2023-02-11T14:52:48;54.80;;;20.95;;
33094;SDS011;19459;53.044;8.910;2023-02-11T14:55:38;50.35;;;20.10;;
33094;SDS011;19459;53.044;8.910;2023-02-11T14:58:10;53.33;;;18.13;;
33094;SDS011;19459;53.044;8.910;2023-02-11T15:03:46;55.53;;;20.63;;
33094;SDS011;19459;53.044;8.910;2023-02-11T15:06:17;53.30;;;18.38;;
33094;SDS011;19459;53.044;8.910;2023-02-11T15:09:11;42.65;;;17.38;;
33094;SDS011;19459;53.044;8.910;2023-02-11T15:11:43;50.20;;;18.00;;
33094;SDS011;19459;53.044;8.910;2023-02-11T15:14:22;35.70;;;16.33;;
33094;SDS011;19459;53.044;8.910;2023-02-11T15:16:49;40.10;;;14.52;;
33094;SDS011;19459;53.044;8.910;2023-02-11T15:22:01;39.60;;;16.10;;
33094;SDS011;19459;53.044;8.910;2023-02-11T15:24:32;48.58;;;15.57;;
33094;SDS011;19459;53.044;8.910;2023-02-11T15:29:26;43.90;;;13.85;;
33094;SDS011;19459;53.044;8.910;2023-02-11T15:34:30;36.13;;;14.20;;
33094;SDS011;19459;53.044;8.910;2023-02-11T15:36:56;51.90;;;16.88;;
33094;SDS011;19459;53.044;8.910;2023-02-11T15:39:38;38.75;;;16.08;;
33094;SDS011;19459;53.044;8.910;2023-02-11T15:42:25;49.90;;;17.67;;
33094;SDS011;19459;53.044;8.910;2023-02-11T15:45:16;40.50;;;17.25;;
33094;SDS011;19459;53.044;8.910;2023-02-11T15:47:53;40.67;;;15.35;;
33094;SDS011;19459;53.044;8.910;2023-02-11T15:50:28;50.22;;;16.17;;
33094;SDS011;19459;53.044;8.910;2023-02-11T15:52:57;53.65;;;19.00;;
33094;SDS011;19459;53.044;8.910;2023-02-11T15:55:42;52.45;;;17.05;;
33094;SDS011;19459;53.044;8.910;2023-02-11T15:58:09;64.50;;;15.55;;
33094;SDS011;19459;53.044;8.910;2023-02-11T16:00:36;51.53;;;17.75;;
33094;SDS011;19459;53.044;8.910;2023-02-11T16:03:19;37.88;;;17.38;;
33094;SDS011;19459;53.044;8.910;2023-02-11T16:05:47;41.40;;;17.80;;
33094;SDS011;19459;53.044;8.910;2023-02-11T16:08:27;42.25;;;17.80;;
33094;SDS011;19459;53.044;8.910;2023-02-11T16:10:58;45.72;;;17.08;;
33094;SDS011;19459;53.044;8.910;2023-02-11T16:13:29;44.88;;;17.98;;
33094;SDS011;19459;53.044;8.910;2023-02-11T16:16:15;52.42;;;17.73;;
33094;SDS011;19459;53.044;8.910;2023-02-11T16:18:50;54.50;;;18.38;;
33094;SDS011;19459;53.044;8.910;2023-02-11T16:21:23;59.58;;;19.52;;
33094;SDS011;19459;53.044;8.910;2023-02-11T16:24:00;52.00;;;20.80;;
33094;SDS011;19459;53.044;8.910;2023-02-11T16:29:06;61.10;;;19.60;;
33094;SDS011;19459;53.044;8.910;2023-02-11T16:31:39;56.05;;;18.13;;
33094;SDS011;19459;53.044;8.910;2023-02-11T16:34:21;53.08;;;19.65;;
33094;SDS011;19459;53.044;8.910;2023-02-11T16:36:49;46.03;;;17.65;;
33094;SDS011;19459;53.044;8.910;2023-02-11T16:39:16;53.15;;;18.40;;
33094;SDS011;19459;53.044;8.910;2023-02-11T16:41:46;42.90;;;18.75;;
33094;SDS011;19459;53.044;8.910;2023-02-11T16:44:14;58.22;;;19.35;;
33094;SDS011;19459;53.044;8.910;2023-02-11T16:46:42;56.83;;;19.92;;
33094;SDS011;19459;53.044;8.910;2023-02-11T16:49:19;53.38;;;17.67;;
33094;SDS011;19459;53.044;8.910;2023-02-11T16:51:50;56.67;;;20.58;;
33094;SDS011;19459;53.044;8.910;2023-02-11T16:54:21;67.05;;;20.42;;
33094;SDS011;19459;53.044;8.910;2023-02-11T16:56:47;44.70;;;19.83;;
33094;SDS011;19459;53.044;8.910;2023-02-11T16:59:13;66.28;;;19.38;;
33094;SDS011;19459;53.044;8.910;2023-02-11T17:01:40;58.50;;;17.98;;
33094;SDS011;19459;53.044;8.910;2023-02-11T17:04:27;54.58;;;19.60;;
33094;SDS011;19459;53.044;8.910;2023-02-11T17:06:55;49.03;;;19.73;;
33094;SDS011;19459;53.044;8.910;2023-02-11T17:09:22;61.10;;;18.42;;
33094;SDS011;19459;53.044;8.910;2023-02-11T17:11:50;52.97;;;16.15;;
33094;SDS011;19459;53.044;8.910;2023-02-11T17:14:17;52.95;;;19.30;;
33094;SDS011;19459;53.044;8.910;2023-02-11T17:16:44;40.50;;;15.93;;
33094;SDS011;19459;53.044;8.910;2023-02-11T17:19:13;51.00;;;14.65;;
33094;SDS011;19459;53.044;8.910;2023-02-11T17:21:42;47.63;;;15.52;;
33094;SDS011;19459;53.044;8.910;2023-02-11T17:24:09;53.28;;;17.58;;
33094;SDS011;19459;53.044;8.910;2023-02-11T17:26:36;38.28;;;15.95;;